Have a Safe July 4th! 

Flight Track Log - Related Links

Times and Time Zones

All times are in EDT time to prevent confusion due to time zone crossing. See the UAL3740 flight status page for this flight to view local times or setup timezone preferences in your user account.

Time Position Orientation Groundspeed Altitude Reporting Facility
EDT Latitude Longitude Course Direction KTS MPH feet Rate Location/Type
Thu 08:37:36 AM 38.9667 -77.4333 349° North 174 200 1,900  Level Potomac TRACON
Thu 08:38:36 AM 39.0333 -77.4500 349° North 222 255 4,600 2,684 Climbing Potomac TRACON
Thu 08:39:30 AM 39.1000 -77.4500 360° North 265 305 7,000 2,219 Climbing Potomac TRACON
Thu 08:41:02 AM 39.1656 -77.3397 52° Northeast 274 315 10,000 1,618 Climbing Washington Center
Thu 08:42:02 AM 39.1358 -77.2158 107° East 276 318 11,100 1,500 Climbing Washington Center
Thu 08:43:02 AM 39.1022 -77.0842 108° East 330 380 13,000 2,350 Climbing Washington Center
Thu 08:44:02 AM 39.0725 -76.9472 106° East 367 422 15,800 2,350 Climbing Washington Center
Thu 08:45:02 AM 39.0636 -76.7972 94° East 396 456 17,700 1,700 Climbing Washington Center
Thu 08:46:02 AM 39.0881 -76.6425 78° East 410 472 19,200 1,400 Climbing Washington Center
Thu 08:47:02 AM 39.1019 -76.4717 84° East 435 501 20,500 1,600 Climbing Washington Center
Thu 08:48:02 AM 39.1364 -76.3086 75° East 465 535 22,400 1,800 Climbing Washington Center
Thu 08:49:02 AM 39.1644 -76.1189 79° East 487 560 24,100 1,500 Climbing Washington Center
Thu 08:50:02 AM 39.1881 -75.9425 80° East 492 566 25,400 1,300 Climbing Washington Center
Thu 08:51:02 AM 39.2653 -75.7928 56° Northeast 479 551 26,700 1,200 Climbing Washington Center
Thu 08:52:02 AM 39.3678 -75.6586 45° Northeast 501 577 27,800 1,150 Climbing Washington Center
Thu 08:53:02 AM 39.4719 -75.5244 45° Northeast 506 582 29,000 1,350 Climbing Washington Center
Thu 08:54:02 AM 39.5717 -75.3897 46° Northeast 511 588 30,500 1,000 Climbing Washington Center
Thu 08:55:02 AM 39.6756 -75.2517 46° Northeast 516 594 31,000 306 Climbing Washington Center
Thu 08:55:40 AM 39.7244 -75.1867 46° Northeast 522 601 31,000  Level New York Center
Thu 08:56:41 AM 39.8258 -75.0336 49° Northeast 543 625 31,000  Level New York Center
Thu 08:57:39 AM 39.9289 -74.8908 47° Northeast 549 632 31,000  Level New York Center
Thu 08:58:39 AM 40.0342 -74.7400 48° Northeast 525 604 31,000 -246 Level New York Center
Thu 08:59:41 AM 40.1328 -74.5989 48° Northeast 516 594 30,500 -663 Descending New York Center
Thu 09:01:40 AM 40.2764 -74.2758 60° Northeast 544 626 29,000 -536 Descending Boston Center
Thu 09:02:40 AM 40.3356 -74.0981 66° East 533 613 28,900 -750 Descending Boston Center
Thu 09:03:40 AM 40.3983 -73.9225 65° Northeast 521 600 27,500 -950 Descending Boston Center
Thu 09:04:40 AM 40.4569 -73.7439 67° East 521 600 27,000 -250 Descending Boston Center
Thu 09:05:40 AM 40.5172 -73.5619 66° East 527 606 27,000  Level Boston Center
Thu 09:06:40 AM 40.5772 -73.3772 67° East 533 613 27,000 -650 Level Boston Center
Thu 09:07:40 AM 40.6328 -73.1947 68° East 538 619 25,700 -1,500 Descending Boston Center
Thu 09:08:40 AM 40.6942 -73.0175 65° Northeast 533 613 24,000 -1,900 Descending Boston Center
Thu 09:09:40 AM 40.7492 -72.8564 66° East 510 587 21,900 -2,100 Descending Boston Center
Thu 09:10:40 AM 40.7997 -72.6950 67° East 481 554 19,800 -2,100 Descending Boston Center
Thu 09:11:40 AM 40.8519 -72.5197 68° East 471 542 17,700 -2,100 Descending Boston Center
Thu 09:12:40 AM 40.9000 -72.3742 66° East 458 527 15,600 -2,000 Descending Boston Center
Thu 09:12:55 AM 40.9083 -72.3522 63° Northeast 440 506 15,200 -2,172 Descending Boston Center
Thu 09:13:38 AM 40.9436 -72.2422 67° East 428 493 13,500 -2,214 Descending Boston Center
Thu 09:14:38 AM 40.9911 -72.1047 65° Northeast 417 480 11,400 -1,240 Descending Boston Center
Thu 09:15:39 AM 41.0344 -71.9750 66° East 404 465 11,000 -639 Descending Boston Center
Thu 09:16:40 AM 41.0881 -71.8700 56° Northeast 370 426 10,100 -1,190 Descending Boston Center
Thu 09:17:40 AM 41.1481 -71.7731 51° Northeast 340 391 8,600 -1,450 Descending Boston Center
Thu 09:18:40 AM 41.2056 -71.6703 53° Northeast 331 381 7,200 -1,300 Descending Boston Center
Thu 09:19:40 AM 41.2633 -71.5786 50° Northeast 320 368 6,000 -1,050 Descending Boston Center
Thu 09:20:40 AM 41.3233 -71.5142 39° Northeast 310 357 5,100 -550 Descending Boston Center
Thu 09:21:40 AM 41.4000 -71.4717 23° Northeast 305 351 4,900 -400 Descending Boston Center
Thu 09:22:40 AM 41.4747 -71.4344 20° North 289 333 4,300 -950 Descending Boston Center
Thu 09:23:40 AM 41.5472 -71.3972 21° North 284 327 3,000 -800 Descending Boston Center
Thu 09:24:40 AM 41.6075 -71.3683 20° North 255 293 2,700 -624 Descending Boston Center
Thu 09:25:45 AM 41.6533 -71.3511 16° North 171 197 1,700 -762 Descending Boston Center
Thu 09:26:46 AM 41.6786 -71.3811 318° Northwest 143 165 1,100 -446 Descending Boston Center
Thu 09:27:46 AM 41.7017 -71.4031 325° Northwest 134 154 800 -300 Descending Boston Center

Login

Don't have an account? Register now (free) for customized features, flight alerts, and more!